createdAt,value
2023-02-07T00:02:38.034Z,102695.75
2023-02-07T00:05:40.967Z,102694.31
2023-02-07T00:08:44.307Z,102702.75
2023-02-07T00:11:47.344Z,102703.72
2023-02-07T00:14:50.001Z,102711.75
2023-02-07T00:17:52.705Z,102715.91
2023-02-07T00:21:07.066Z,102724.16
2023-02-07T00:24:09.878Z,102721.03
2023-02-07T00:27:12.559Z,102724.19
2023-02-07T00:30:15.397Z,102718.97
2023-02-07T00:33:18.270Z,102715.59
2023-02-07T00:36:23.686Z,102711.50
2023-02-07T00:39:26.475Z,102720.59
2023-02-07T00:42:29.410Z,102722.69
2023-02-07T00:45:31.999Z,102720.88
2023-02-07T00:48:35.504Z,102716.69
2023-02-07T00:51:38.223Z,102712.97
2023-02-07T00:54:41.022Z,102719.28
2023-02-07T00:57:43.478Z,102712.69
2023-02-07T01:00:46.837Z,102710.09
2023-02-07T01:03:49.474Z,102707.66
2023-02-07T01:06:52.441Z,102696.88
2023-02-07T01:09:55.353Z,102690.69
2023-02-07T01:12:58.025Z,102690.97
2023-02-07T01:16:01.566Z,102703.13
2023-02-07T01:19:11.634Z,102691.38
2023-02-07T01:22:14.354Z,102688.50
2023-02-07T01:25:20.501Z,102684.00
2023-02-07T01:28:23.045Z,102685.25
2023-02-07T01:31:26.103Z,102678.38
2023-02-07T01:34:29.048Z,102679.16
2023-02-07T01:37:31.984Z,102672.84
2023-02-07T01:40:38.223Z,102668.84
2023-02-07T01:44:02.586Z,102660.78
2023-02-07T01:47:05.787Z,102665.16
2023-02-07T01:50:09.796Z,102668.47
2023-02-07T01:53:17.629Z,102665.34
2023-02-07T01:56:31.253Z,102662.97
2023-02-07T01:59:39.145Z,102645.16
2023-02-07T02:02:43.377Z,102651.84
2023-02-07T02:05:50.421Z,102655.41
2023-02-07T02:08:57.684Z,102638.25
2023-02-07T02:12:31.073Z,102642.19
2023-02-07T02:15:37.341Z,102650.13
2023-02-07T02:18:46.787Z,102640.53
2023-02-07T02:21:58.773Z,102645.00
2023-02-07T02:25:04.198Z,102645.59
2023-02-07T02:28:21.699Z,102652.47
2023-02-07T02:31:24.101Z,102659.56
2023-02-07T02:34:52.194Z,102652.75
2023-02-07T02:38:07.960Z,102666.41
2023-02-07T02:41:28.961Z,102669.16
2023-02-07T02:44:38.421Z,102665.53
2023-02-07T02:47:45.678Z,102669.25
2023-02-07T02:50:49.988Z,102661.75
2023-02-07T02:53:58.349Z,102659.28
2023-02-07T02:57:30.991Z,102661.84
2023-02-07T03:01:02.299Z,102665.03
2023-02-07T03:04:24.095Z,102661.00
2023-02-07T03:07:46.953Z,102647.47
2023-02-07T03:10:59.995Z,102646.22
2023-02-07T03:14:13.065Z,102653.22
2023-02-07T03:17:32.550Z,102642.03
2023-02-07T03:21:00.523Z,102643.88
2023-02-07T03:24:16.423Z,102645.06
2023-02-07T03:27:22.580Z,102648.94
2023-02-07T03:30:32.872Z,102638.09
2023-02-07T03:33:36.610Z,102644.91
2023-02-07T03:36:46.423Z,102650.44
2023-02-07T03:39:49.500Z,102657.16
2023-02-07T03:42:59.799Z,102660.56
2023-02-07T03:46:02.643Z,102660.59
2023-02-07T03:49:07.949Z,102671.69
2023-02-07T03:52:10.760Z,102652.56
2023-02-07T03:55:13.270Z,102654.19
2023-02-07T03:58:15.945Z,102649.28
2023-02-07T04:01:18.729Z,102655.84
2023-02-07T04:04:21.844Z,102651.25
2023-02-07T04:07:24.331Z,102651.66
2023-02-07T04:10:27.641Z,102661.06
2023-02-07T04:13:30.640Z,102655.91
2023-02-07T04:16:33.489Z,102654.94
2023-02-07T04:19:36.222Z,102664.75
2023-02-07T04:22:38.939Z,102666.66
2023-02-07T04:25:41.763Z,102650.34
2023-02-07T04:28:44.658Z,102670.78
2023-02-07T04:31:47.466Z,102664.13
2023-02-07T04:34:50.278Z,102664.63
2023-02-07T04:37:53.502Z,102668.22
2023-02-07T04:41:05.324Z,102668.06
2023-02-07T04:44:08.076Z,102666.03
2023-02-07T04:47:10.797Z,102676.81
2023-02-07T04:50:14.953Z,102672.44
2023-02-07T04:53:17.743Z,102678.88
2023-02-07T04:56:20.566Z,102690.19
2023-02-07T04:59:23.257Z,102696.06
2023-02-07T05:02:25.980Z,102700.41
2023-02-07T05:05:28.863Z,102700.81
2023-02-07T05:08:31.250Z,102709.84
2023-02-07T05:11:34.018Z,102701.94
2023-02-07T05:14:36.484Z,102702.34
2023-02-07T05:17:39.509Z,102708.91
2023-02-07T05:20:42.473Z,102698.25
2023-02-07T05:23:45.085Z,102706.97
2023-02-07T05:26:47.673Z,102708.06
2023-02-07T05:29:50.433Z,102698.78
2023-02-07T05:33:05.627Z,102710.63
2023-02-07T05:36:09.601Z,102726.59
2023-02-07T05:39:12.397Z,102727.00
2023-02-07T05:42:15.693Z,102726.28
2023-02-07T05:45:18.294Z,102732.00
2023-02-07T05:48:21.090Z,102733.41
2023-02-07T05:51:23.941Z,102739.53
2023-02-07T05:54:26.554Z,102736.69
2023-02-07T05:57:29.114Z,102735.06
2023-02-07T06:00:31.702Z,102742.56
2023-02-07T06:03:34.345Z,102745.44
2023-02-07T06:06:36.974Z,102746.78
2023-02-07T06:09:39.713Z,102750.34
2023-02-07T06:12:42.701Z,102740.78
2023-02-07T06:15:45.133Z,102745.56
2023-02-07T06:18:48.108Z,102742.97
2023-02-07T06:21:50.528Z,102749.78
2023-02-07T06:24:53.247Z,102739.97
2023-02-07T06:27:55.703Z,102740.50
2023-02-07T06:30:59.403Z,102745.84
2023-02-07T06:34:01.896Z,102736.41
2023-02-07T06:37:04.440Z,102757.28
2023-02-07T06:40:07.672Z,102747.34
2023-02-07T06:43:11.685Z,102754.03
2023-02-07T06:46:14.624Z,102751.28
2023-02-07T06:49:17.399Z,102749.13
2023-02-07T06:52:19.974Z,102733.53
2023-02-07T06:55:22.526Z,102737.81
2023-02-07T06:58:25.015Z,102751.97
2023-02-07T07:01:27.764Z,102760.56
2023-02-07T07:04:31.005Z,102757.78
2023-02-07T07:07:33.837Z,102754.47
2023-02-07T07:10:36.609Z,102758.47
2023-02-07T07:13:39.334Z,102756.38
2023-02-07T07:16:42.008Z,102771.88
2023-02-07T07:19:44.534Z,102778.03
2023-02-07T07:22:48.206Z,102761.22
2023-02-07T07:25:50.772Z,102764.88
2023-02-07T07:28:58.082Z,102768.88
2023-02-07T07:32:00.950Z,102776.53
2023-02-07T07:35:04.932Z,102774.84
2023-02-07T07:38:07.868Z,102773.50
2023-02-07T07:41:10.759Z,102785.34
2023-02-07T07:44:13.882Z,102778.78
2023-02-07T07:47:16.290Z,102786.06
2023-02-07T07:50:19.120Z,102782.97
2023-02-07T07:53:21.666Z,102784.19
2023-02-07T07:56:24.325Z,102783.00
2023-02-07T07:59:27.025Z,102776.44
2023-02-07T08:02:30.720Z,102781.81
2023-02-07T08:05:33.219Z,102780.50
2023-02-07T08:08:35.889Z,102771.19
2023-02-07T08:11:38.782Z,102780.22
2023-02-07T08:14:42.307Z,102778.41
2023-02-07T08:17:44.868Z,102770.34
2023-02-07T08:20:51.733Z,102768.88
2023-02-07T08:23:57.484Z,102773.88
2023-02-07T08:27:00.245Z,102768.78
2023-02-07T08:30:04.315Z,102763.56
2023-02-07T08:33:11.019Z,102764.50
2023-02-07T08:36:18.077Z,102769.91
2023-02-07T08:39:20.770Z,102765.66
2023-02-07T08:42:23.289Z,102771.41
2023-02-07T08:45:26.009Z,102767.91
2023-02-07T08:48:28.889Z,102768.97
2023-02-07T08:51:31.503Z,102764.44
2023-02-07T08:54:34.348Z,102760.06
2023-02-07T08:57:37.207Z,102753.53
2023-02-07T09:00:41.777Z,102744.41
2023-02-07T09:03:44.389Z,102746.38
2023-02-07T09:06:47.259Z,102750.00
2023-02-07T09:09:49.779Z,102749.06
2023-02-07T09:12:52.506Z,102750.00
2023-02-07T09:15:58.344Z,102751.69
2023-02-07T09:19:01.080Z,102756.56
2023-02-07T09:22:05.273Z,102750.94
2023-02-07T09:25:08.143Z,102749.66
2023-02-07T09:28:11.135Z,102753.97
2023-02-07T09:31:15.412Z,102750.06
2023-02-07T09:34:18.370Z,102747.03
2023-02-07T09:37:21.112Z,102746.72
2023-02-07T09:40:31.898Z,102747.84
2023-02-07T09:43:53.691Z,102736.13
2023-02-07T09:47:12.916Z,102736.97
2023-02-07T09:50:20.932Z,102743.63
2023-02-07T09:53:28.226Z,102734.44
2023-02-07T09:56:32.814Z,102739.09
2023-02-07T09:59:43.411Z,102744.25
2023-02-07T10:02:52.866Z,102725.56
2023-02-07T10:06:01.462Z,102729.00
2023-02-07T10:09:14.890Z,102729.81
2023-02-07T10:12:40.254Z,102716.72
2023-02-07T10:16:14.158Z,102725.94
2023-02-07T10:19:37.949Z,102709.84
2023-02-07T10:22:52.358Z,102710.06
2023-02-07T10:26:21.425Z,102697.75
2023-02-07T10:29:44.677Z,102697.81
2023-02-07T10:32:47.758Z,102680.84
2023-02-07T10:35:52.282Z,102686.59
2023-02-07T10:39:12.889Z,102684.69
2023-02-07T10:42:16.970Z,102681.13
2023-02-07T10:45:19.980Z,102673.75
2023-02-07T10:48:22.474Z,102676.94
2023-02-07T10:51:30.142Z,102672.97
2023-02-07T10:54:50.914Z,102671.94
2023-02-07T10:58:02.811Z,102664.94
2023-02-07T11:01:19.758Z,102655.91
2023-02-07T11:04:44.019Z,102660.22
2023-02-07T11:08:18.872Z,102643.47
2023-02-07T11:11:32.895Z,102641.88
2023-02-07T11:14:36.417Z,102628.03
2023-02-07T11:17:55.179Z,102618.41
2023-02-07T11:20:58.081Z,102610.28
2023-02-07T11:24:13.218Z,102612.94
2023-02-07T11:27:17.000Z,102607.38
2023-02-07T11:30:22.405Z,102607.50
2023-02-07T11:33:28.241Z,102605.44
2023-02-07T11:36:33.567Z,102603.34
2023-02-07T11:39:36.738Z,102598.84
2023-02-07T11:42:39.505Z,102593.25
2023-02-07T11:45:46.354Z,102591.41
2023-02-07T11:48:52.666Z,102589.19
2023-02-07T11:51:58.912Z,102597.28
2023-02-07T11:55:07.345Z,102594.81
2023-02-07T11:58:31.935Z,102587.13
2023-02-07T12:01:36.415Z,102586.69
2023-02-07T12:04:39.502Z,102583.72
2023-02-07T12:07:50.724Z,102573.16
2023-02-07T12:10:58.588Z,102573.38
2023-02-07T12:14:11.381Z,102570.59
2023-02-07T12:17:18.448Z,102573.84
2023-02-07T12:20:26.952Z,102570.75
2023-02-07T12:24:13.265Z,102578.53
2023-02-07T12:27:17.694Z,102577.06
2023-02-07T12:30:32.911Z,102569.34
2023-02-07T12:33:53.970Z,102562.69
2023-02-07T12:37:05.288Z,102565.84
2023-02-07T12:40:12.942Z,102560.03
2023-02-07T12:43:24.997Z,102561.84
2023-02-07T12:47:14.140Z,102551.91
2023-02-07T12:50:42.263Z,102552.44
2023-02-07T12:53:47.837Z,102557.97
2023-02-07T12:57:03.399Z,102550.06
2023-02-07T13:00:28.108Z,102564.16
2023-02-07T13:03:45.073Z,102569.72
2023-02-07T13:07:08.360Z,102566.38
2023-02-07T13:10:31.734Z,102567.47
2023-02-07T13:14:11.504Z,102569.94
2023-02-07T13:17:26.045Z,102576.31
2023-02-07T13:20:40.683Z,102577.00
2023-02-07T13:23:46.709Z,102576.88
2023-02-07T13:26:59.205Z,102580.88
2023-02-07T13:30:02.611Z,102578.75
2023-02-07T13:33:25.957Z,102581.25
2023-02-07T13:36:40.771Z,102581.50
2023-02-07T13:40:20.949Z,102581.41
2023-02-07T13:43:43.251Z,102590.50
2023-02-07T13:47:27.729Z,102583.09
2023-02-07T13:50:42.534Z,102583.06
2023-02-07T13:54:32.080Z,102588.16
2023-02-07T13:57:53.316Z,102576.81
2023-02-07T14:00:58.421Z,102599.06
2023-02-07T14:04:08.205Z,102599.22
2023-02-07T14:07:21.308Z,102608.72
2023-02-07T14:10:37.518Z,102603.44
2023-02-07T14:13:40.030Z,102602.63
2023-02-07T14:17:14.378Z,102599.59
2023-02-07T14:20:35.681Z,102608.03
2023-02-07T14:24:03.189Z,102603.38
2023-02-07T14:27:35.298Z,102591.63
2023-02-07T14:31:00.027Z,102603.00
2023-02-07T14:34:14.698Z,102593.69
2023-02-07T14:37:55.746Z,102589.53
2023-02-07T14:41:10.522Z,102587.00
2023-02-07T14:44:27.673Z,102585.78
2023-02-07T14:47:31.517Z,102590.41
2023-02-07T14:50:35.611Z,102594.28
2023-02-07T14:53:45.060Z,102589.66
2023-02-07T14:57:19.003Z,102601.88
2023-02-07T15:00:37.666Z,102593.50
2023-02-07T15:03:40.578Z,102590.06
2023-02-07T15:06:45.005Z,102584.56
2023-02-07T15:09:47.589Z,102586.06
2023-02-07T15:12:54.406Z,102583.56
2023-02-07T15:16:05.432Z,102588.44
2023-02-07T15:19:32.987Z,102583.41
2023-02-07T15:22:35.606Z,102587.00
2023-02-07T15:25:41.733Z,102574.97
2023-02-07T15:28:44.602Z,102581.22
2023-02-07T15:31:47.521Z,102573.06
2023-02-07T15:34:50.488Z,102566.19
2023-02-07T15:37:54.381Z,102573.25
2023-02-07T15:40:58.089Z,102579.25
2023-02-07T15:44:03.730Z,102574.81
2023-02-07T15:47:28.155Z,102581.06
2023-02-07T15:50:34.578Z,102585.88
2023-02-07T15:53:38.020Z,102582.81
2023-02-07T15:56:46.603Z,102587.06
2023-02-07T15:59:52.215Z,102600.53
2023-02-07T16:03:05.708Z,102585.88
2023-02-07T16:06:15.813Z,102590.50
2023-02-07T16:09:37.805Z,102600.97
2023-02-07T16:12:45.071Z,102606.22
2023-02-07T16:15:59.365Z,102602.44
2023-02-07T16:19:14.036Z,102595.56
2023-02-07T16:22:21.533Z,102596.00
2023-02-07T16:25:29.166Z,102602.31
2023-02-07T16:28:32.615Z,102602.81
2023-02-07T16:31:35.686Z,102608.16
2023-02-07T16:34:50.332Z,102609.97
2023-02-07T16:38:00.615Z,102611.41
2023-02-07T16:41:03.855Z,102617.22
2023-02-07T16:44:09.518Z,102612.72
2023-02-07T16:47:14.159Z,102620.94
2023-02-07T16:50:26.154Z,102620.25
2023-02-07T16:53:28.986Z,102620.50
2023-02-07T16:56:32.446Z,102614.56
2023-02-07T16:59:35.054Z,102624.66
2023-02-07T17:02:37.941Z,102623.38
2023-02-07T17:05:40.771Z,102626.94
2023-02-07T17:08:44.064Z,102626.63
2023-02-07T17:11:47.089Z,102634.03
2023-02-07T17:14:49.713Z,102647.28
2023-02-07T17:17:53.903Z,102645.22
2023-02-07T17:20:57.007Z,102645.94
2023-02-07T17:23:59.666Z,102650.06
2023-02-07T17:27:02.513Z,102653.47
2023-02-07T17:30:21.705Z,102657.41
2023-02-07T17:33:24.765Z,102651.16
2023-02-07T17:36:29.033Z,102653.72
2023-02-07T17:39:32.109Z,102660.13
2023-02-07T17:42:34.995Z,102662.50
2023-02-07T17:45:38.891Z,102664.34
2023-02-07T17:48:41.701Z,102660.53
2023-02-07T17:51:46.651Z,102666.91
2023-02-07T17:54:49.442Z,102678.19
2023-02-07T17:57:52.147Z,102680.16
2023-02-07T18:00:54.650Z,102670.53
2023-02-07T18:03:58.354Z,102671.50
2023-02-07T18:07:01.160Z,102673.44
2023-02-07T18:10:07.087Z,102674.47
2023-02-07T18:13:10.085Z,102677.72
2023-02-07T18:16:19.173Z,102671.75
2023-02-07T18:19:22.292Z,102683.31
2023-02-07T18:22:25.645Z,102674.41
2023-02-07T18:25:29.766Z,102679.28
2023-02-07T18:28:33.126Z,102683.09
2023-02-07T18:31:39.676Z,102672.81
2023-02-07T18:34:44.820Z,102681.28
2023-02-07T18:37:48.035Z,102682.94
2023-02-07T18:40:51.285Z,102678.50
2023-02-07T18:43:54.211Z,102691.25
2023-02-07T18:46:57.064Z,102680.31
2023-02-07T18:50:00.595Z,102684.72
2023-02-07T18:53:05.558Z,102693.41
2023-02-07T18:56:19.785Z,102690.50
2023-02-07T18:59:24.404Z,102687.91
2023-02-07T19:02:27.228Z,102685.06
2023-02-07T19:05:30.514Z,102683.28
2023-02-07T19:08:33.668Z,102681.03
2023-02-07T19:11:40.739Z,102685.53
2023-02-07T19:14:43.483Z,102684.22
2023-02-07T19:17:46.542Z,102684.38
2023-02-07T19:20:49.487Z,102684.56
2023-02-07T19:23:56.977Z,102684.25
2023-02-07T19:27:00.111Z,102684.91
2023-02-07T19:30:04.490Z,102691.41
2023-02-07T19:33:07.969Z,102705.66
2023-02-07T19:36:12.569Z,102692.75
2023-02-07T19:39:15.190Z,102708.75
2023-02-07T19:42:18.186Z,102700.38
2023-02-07T19:45:21.568Z,102699.09
2023-02-07T19:48:24.781Z,102697.13
2023-02-07T19:51:29.622Z,102692.75
2023-02-07T19:54:33.825Z,102689.78
2023-02-07T19:57:36.515Z,102690.13
2023-02-07T20:00:39.976Z,102687.34
2023-02-07T20:03:44.338Z,102694.03
2023-02-07T20:06:47.666Z,102689.91
2023-02-07T20:09:50.791Z,102700.72
2023-02-07T20:12:53.977Z,102689.78
2023-02-07T20:15:56.541Z,102685.38
2023-02-07T20:19:00.263Z,102695.03
2023-02-07T20:22:03.097Z,102703.53
2023-02-07T20:25:06.412Z,102699.28
2023-02-07T20:28:09.315Z,102714.97
2023-02-07T20:31:14.529Z,102702.41
2023-02-07T20:34:17.438Z,102696.00
2023-02-07T20:37:20.418Z,102701.97
2023-02-07T20:40:23.510Z,102712.25
2023-02-07T20:43:26.402Z,102690.22
2023-02-07T20:46:30.267Z,102695.44
2023-02-07T20:49:33.631Z,102696.31
2023-02-07T20:52:37.631Z,102685.75
2023-02-07T20:55:40.817Z,102702.97
2023-02-07T20:58:46.914Z,102696.34
2023-02-07T21:01:50.121Z,102712.22
2023-02-07T21:04:52.735Z,102706.31
2023-02-07T21:07:55.669Z,102712.06
2023-02-07T21:11:00.334Z,102708.00
2023-02-07T21:14:07.151Z,102706.72
2023-02-07T21:17:12.108Z,102724.09
2023-02-07T21:20:16.357Z,102710.38
2023-02-07T21:23:20.913Z,102709.38
2023-02-07T21:26:23.800Z,102710.38
2023-02-07T21:29:28.027Z,102716.75
2023-02-07T21:32:30.921Z,102707.94
2023-02-07T21:35:33.751Z,102706.81
2023-02-07T21:38:37.893Z,102718.22
2023-02-07T21:41:43.548Z,102714.63
2023-02-07T21:44:46.120Z,102712.81
2023-02-07T21:47:48.878Z,102725.06
2023-02-07T21:50:52.561Z,102718.31
2023-02-07T21:53:57.127Z,102734.78
2023-02-07T21:56:59.756Z,102732.47
2023-02-07T22:00:02.439Z,102722.66
2023-02-07T22:03:08.594Z,102726.72
2023-02-07T22:06:12.502Z,102727.34
2023-02-07T22:09:17.853Z,102726.66
2023-02-07T22:12:20.506Z,102724.81
2023-02-07T22:15:23.785Z,102711.03
2023-02-07T22:18:26.867Z,102713.13
2023-02-07T22:21:32.676Z,102722.09
2023-02-07T22:24:35.204Z,102722.34
2023-02-07T22:27:38.513Z,102719.09
2023-02-07T22:30:42.005Z,102720.84
2023-02-07T22:33:46.030Z,102720.59
2023-02-07T22:36:48.557Z,102723.41
2023-02-07T22:39:51.564Z,102722.03
2023-02-07T22:42:54.205Z,102722.59
2023-02-07T22:45:57.431Z,102719.16
2023-02-07T22:49:00.145Z,102715.97
2023-02-07T22:52:03.507Z,102717.03
2023-02-07T22:55:06.092Z,102714.47
2023-02-07T22:58:15.336Z,102723.19
2023-02-07T23:01:32.584Z,102727.16
2023-02-07T23:04:35.341Z,102726.63
2023-02-07T23:07:38.303Z,102715.16
2023-02-07T23:10:42.746Z,102727.16
2023-02-07T23:13:45.699Z,102721.78
2023-02-07T23:16:48.450Z,102730.41
2023-02-07T23:19:50.935Z,102714.75
2023-02-07T23:22:53.585Z,102722.50
2023-02-07T23:25:57.920Z,102725.28
2023-02-07T23:29:01.130Z,102719.88
2023-02-07T23:32:04.740Z,102717.38
2023-02-07T23:35:08.286Z,102718.00
2023-02-07T23:38:10.805Z,102717.50
2023-02-07T23:41:14.175Z,102721.59
2023-02-07T23:44:16.902Z,102721.78
2023-02-07T23:47:20.293Z,102726.16
2023-02-07T23:50:25.367Z,102724.34
2023-02-07T23:53:28.394Z,102728.59
2023-02-07T23:56:31.000Z,102727.81
2023-02-07T23:59:34.951Z,102733.88
